Time;durP1;ratioP1;P1;durP2;ratioP2;P2;SDS_P1;SDS_P2;PMS_P1;PMS_P2;Temp;Humidity;BMP_temperature;BMP_pressure;BME280_temperature;BME280_humidity;BME280_pressure;Samples;Min_cycle;Max_cycle;Signal;HPM_P1;HPM_P2
2023/12/28 00:00:51;;;;;;;0.77;0.60;;;17.90;78.50;;;;;;5106880;27;45278;-52
2023/12/28 00:03:18;;;;;;;1.02;0.60;;;17.90;78.40;;;;;;5107044;27;45248;-52
2023/12/28 00:05:46;;;;;;;0.90;0.80;;;17.90;78.00;;;;;;5105541;27;45390;-52
2023/12/28 00:08:13;;;;;;;0.68;0.68;;;17.90;78.80;;;;;;5106308;27;46499;-52
2023/12/28 00:10:40;;;;;;;1.23;0.70;;;17.80;78.60;;;;;;5103962;27;45157;-52
2023/12/28 00:13:06;;;;;;;1.58;0.93;;;17.90;78.70;;;;;;5107632;27;45123;-52
2023/12/28 00:15:33;;;;;;;1.48;0.60;;;17.90;78.60;;;;;;5109031;27;45153;-52
2023/12/28 00:18:00;;;;;;;1.63;0.50;;;17.90;78.60;;;;;;5107798;27;46242;-52
2023/12/28 00:20:27;;;;;;;0.60;0.60;;;17.80;78.40;;;;;;5104478;27;45246;-52
2023/12/28 00:22:56;;;;;;;1.25;0.60;;;17.90;78.20;;;;;;5107601;27;45297;-52
2023/12/28 00:25:22;;;;;;;1.17;0.65;;;17.80;78.90;;;;;;5107840;27;45139;-52
2023/12/28 00:27:49;;;;;;;0.80;0.60;;;17.80;78.80;;;;;;5108707;27;45442;-52
2023/12/28 00:30:17;;;;;;;1.00;0.57;;;17.80;79.80;;;;;;5100800;27;44690;-52
2023/12/28 00:32:45;;;;;;;1.77;0.82;;;17.90;79.60;;;;;;5103430;27;45229;-52
2023/12/28 00:35:12;;;;;;;1.75;0.70;;;17.90;79.50;;;;;;5106185;27;45446;-52
2023/12/28 00:37:40;;;;;;;1.13;0.70;;;17.90;80.70;;;;;;5105184;27;45366;-52
2023/12/28 00:40:09;;;;;;;1.20;0.80;;;17.80;80.80;;;;;;5106785;27;45405;-52
2023/12/28 00:42:36;;;;;;;1.27;0.75;;;17.80;81.20;;;;;;5105358;27;45133;-52
2023/12/28 00:45:03;;;;;;;1.17;0.70;;;17.80;82.20;;;;;;5106826;27;45464;-52
2023/12/28 00:47:29;;;;;;;1.65;0.60;;;17.80;81.40;;;;;;5105629;27;47291;-52
2023/12/28 00:49:56;;;;;;;1.70;0.90;;;17.80;81.10;;;;;;5105847;27;45461;-52
2023/12/28 00:52:23;;;;;;;2.00;0.68;;;17.80;81.20;;;;;;5105568;27;45216;-52
2023/12/28 00:54:50;;;;;;;0.70;0.60;;;17.80;81.30;;;;;;5108276;27;45372;-52
2023/12/28 00:57:18;;;;;;;1.40;0.70;;;17.90;81.40;;;;;;5099176;27;46486;-52
2023/12/28 00:59:45;;;;;;;1.20;0.63;;;17.90;81.40;;;;;;5106379;27;45168;-52
2023/12/28 01:02:11;;;;;;;0.88;0.60;;;17.90;81.50;;;;;;5106118;27;45172;-52
2023/12/28 01:04:38;;;;;;;1.20;0.70;;;17.90;81.40;;;;;;5103186;27;45194;-52
2023/12/28 01:07:06;;;;;;;1.25;0.80;;;17.90;81.40;;;;;;5103971;27;46046;-52
2023/12/28 01:09:33;;;;;;;2.17;0.77;;;17.90;81.40;;;;;;5099433;27;46291;-52
2023/12/28 01:11:59;;;;;;;1.48;0.70;;;17.90;81.40;;;;;;5100995;27;45270;-52
2023/12/28 01:14:28;;;;;;;0.85;0.60;;;17.80;81.30;;;;;;5106724;27;45212;-52
2023/12/28 01:16:54;;;;;;;2.35;0.73;;;17.90;81.20;;;;;;5105193;27;46250;-52
2023/12/28 01:19:23;;;;;;;1.05;0.68;;;17.90;81.20;;;;;;5107581;27;45312;-52
2023/12/28 01:21:50;;;;;;;1.10;0.63;;;17.90;81.10;;;;;;5109374;27;45186;-52
2023/12/28 01:24:16;;;;;;;0.80;0.50;;;17.90;81.20;;;;;;5112012;27;45121;-52
2023/12/28 01:26:43;;;;;;;1.45;0.77;;;17.90;81.20;;;;;;5110808;27;45321;-52
2023/12/28 01:29:10;;;;;;;0.70;0.70;;;17.90;81.10;;;;;;5109516;27;45702;-52
2023/12/28 01:31:40;;;;;;;0.77;0.65;;;17.90;81.20;;;;;;5108938;27;45321;-52
2023/12/28 01:34:09;;;;;;;0.82;0.55;;;17.90;81.10;;;;;;5108396;27;45174;-52
2023/12/28 01:36:35;;;;;;;0.50;0.50;;;17.90;81.00;;;;;;5110114;27;45226;-52
2023/12/28 01:39:03;;;;;;;1.15;0.63;;;17.90;80.20;;;;;;5108777;27;45227;-52
2023/12/28 01:41:30;;;;;;;1.25;0.70;;;17.90;80.70;;;;;;5108928;27;45158;-52
2023/12/28 01:43:56;;;;;;;1.65;0.80;;;17.90;80.40;;;;;;5111292;27;45124;-52
2023/12/28 01:46:23;;;;;;;1.55;0.73;;;17.90;80.30;;;;;;5109873;27;45311;-52
2023/12/28 01:48:52;;;;;;;1.00;0.70;;;17.90;80.20;;;;;;5109634;27;45173;-52
2023/12/28 01:51:20;;;;;;;1.45;0.80;;;17.90;80.50;;;;;;5105401;27;45215;-52
2023/12/28 01:53:48;;;;;;;2.20;0.80;;;17.90;80.60;;;;;;5109359;27;45165;-52
2023/12/28 01:56:16;;;;;;;0.65;0.57;;;17.90;80.30;;;;;;5109430;27;45182;-52
2023/12/28 01:58:45;;;;;;;0.40;0.40;;;17.90;80.50;;;;;;5108451;27;45214;-52
2023/12/28 02:01:12;;;;;;;1.40;0.60;;;17.80;80.30;;;;;;5109099;27;45130;-52
2023/12/28 02:03:49;;;;;;;1.05;0.60;;;17.80;80.40;;;;;;5108919;27;45382;-52
2023/12/28 02:06:27;;;;;;;1.10;0.70;;;17.80;80.70;;;;;;4887059;27;45818;-53
2023/12/28 02:08:55;;;;;;;0.90;0.57;;;17.80;80.60;;;;;;4889220;27;45278;-52
2023/12/28 02:11:48;;;;;;;0.98;0.60;;;17.80;80.40;;;;;;4896719;27;45554;-53
2023/12/28 02:15:16;;;;;;;2.63;0.60;;;17.80;80.70;;;;;;4936276;27;45413;-53
2023/12/28 02:21:17;;;;;;;0.77;0.60;;;17.90;80.60;;;;;;4865284;27;45514;-53
2023/12/28 02:23:54;;;;;;;0.88;0.73;;;17.90;80.60;;;;;;4873165;27;45432;-53
2023/12/28 02:26:38;;;;;;;1.23;0.50;;;17.90;80.50;;;;;;4877946;27;45356;-53
2023/12/28 02:29:16;;;;;;;0.70;0.60;;;17.90;80.80;;;;;;4881969;27;45989;-53
2023/12/28 02:32:12;;;;;;;1.42;0.50;;;17.90;80.50;;;;;;4911755;27;45371;-52
2023/12/28 02:34:53;;;;;;;1.17;0.55;;;17.90;80.30;;;;;;4889595;27;45370;-53
2023/12/28 02:37:53;;;;;;;1.65;0.70;;;17.90;80.20;;;;;;4919174;27;45282;-52
2023/12/28 02:40:30;;;;;;;1.25;0.68;;;17.90;80.50;;;;;;4888587;27;46348;-53
2023/12/28 02:43:20;;;;;;;0.80;0.65;;;17.90;80.50;;;;;;4875998;27;45574;-53
2023/12/28 02:46:09;;;;;;;0.82;0.60;;;17.80;80.70;;;;;;4893877;27;45371;-52
2023/12/28 02:48:50;;;;;;;2.45;0.75;;;17.90;80.80;;;;;;4894590;27;45331;-53
2023/12/28 02:51:17;;;;;;;0.70;0.63;;;17.80;80.60;;;;;;4879662;27;46052;-53
2023/12/28 02:54:15;;;;;;;0.70;0.60;;;17.80;80.50;;;;;;4922341;27;45354;-52
2023/12/28 02:56:42;;;;;;;0.90;0.70;;;17.80;80.40;;;;;;4868399;27;45552;-53
2023/12/28 02:59:11;;;;;;;1.08;0.75;;;17.80;80.60;;;;;;4889318;27;45434;-53
2023/12/28 03:02:05;;;;;;;0.77;0.50;;;17.80;80.50;;;;;;4880053;27;46290;-53
2023/12/28 03:04:55;;;;;;;2.05;0.80;;;17.80;80.50;;;;;;4896715;27;45552;-53
2023/12/28 03:07:26;;;;;;;1.05;0.80;;;17.80;81.00;;;;;;4895311;27;45462;-53
2023/12/28 03:10:33;;;;;;;1.20;0.70;;;17.80;80.30;;;;;;4877203;27;45524;-52
2023/12/28 03:13:28;;;;;;;1.05;0.70;;;17.80;79.90;;;;;;4874281;27;46604;-53
2023/12/28 03:16:21;;;;;;;1.00;0.70;;;17.80;78.90;;;;;;4898681;27;45525;-53
2023/12/28 03:18:57;;;;;;;1.58;0.77;;;17.80;79.30;;;;;;4879571;27;45258;-53
2023/12/28 03:22:00;;;;;;;1.25;0.65;;;17.90;79.60;;;;;;4901328;27;45350;-53
2023/12/28 03:24:47;;;;;;;1.38;0.57;;;17.90;79.50;;;;;;4886065;27;45634;-53
2023/12/28 03:27:15;;;;;;;1.48;0.73;;;17.90;79.40;;;;;;4879338;27;45641;-53
2023/12/28 03:29:56;;;;;;;0.73;0.50;;;17.90;79.30;;;;;;4882815;27;45301;-53
2023/12/28 03:32:49;;;;;;;0.73;0.45;;;17.80;79.30;;;;;;4881875;27;45306;-53
2023/12/28 03:35:16;;;;;;;0.47;0.47;;;17.90;80.00;;;;;;4902828;27;45594;-53
2023/12/28 03:38:09;;;;;;;1.85;0.88;;;17.80;79.70;;;;;;4890468;27;45713;-53
2023/12/28 03:41:01;;;;;;;1.10;0.88;;;17.80;80.10;;;;;;4883118;27;45193;-53
2023/12/28 03:44:01;;;;;;;1.15;0.70;;;17.80;79.90;;;;;;4905660;27;45421;-52
2023/12/28 03:46:28;;;;;;;0.88;0.52;;;17.80;79.90;;;;;;4871214;27;45811;-53
2023/12/28 03:49:04;;;;;;;1.13;0.80;;;17.80;79.60;;;;;;4919522;27;45498;-53
2023/12/28 03:51:32;;;;;;;0.88;0.60;;;17.80;79.60;;;;;;4893659;27;45548;-53
2023/12/28 03:53:58;;;;;;;1.48;0.70;;;17.80;79.80;;;;;;4890155;27;45556;-53
2023/12/28 03:56:30;;;;;;;0.65;0.60;;;17.80;79.90;;;;;;4905942;27;47717;-52
2023/12/28 03:58:56;;;;;;;0.98;0.70;;;17.70;79.80;;;;;;4886650;27;45484;-53
2023/12/28 04:01:25;;;;;;;1.27;0.60;;;17.80;79.90;;;;;;4870355;27;45146;-53
2023/12/28 04:04:03;;;;;;;1.42;0.68;;;17.80;79.70;;;;;;4883950;27;45613;-53
2023/12/28 04:07:02;;;;;;;0.85;0.70;;;17.80;80.50;;;;;;4881426;27;45560;-53
2023/12/28 04:09:51;;;;;;;2.75;0.68;;;17.90;79.10;;;;;;4912790;27;45102;-53
2023/12/28 04:12:20;;;;;;;1.15;0.65;;;17.90;79.10;;;;;;4875759;27;45461;-53
2023/12/28 04:15:31;;;;;;;0.70;0.68;;;17.90;79.60;;;;;;4914372;27;45401;-52
2023/12/28 04:17:58;;;;;;;0.77;0.60;;;17.90;79.40;;;;;;4890459;27;46407;-53
2023/12/28 04:20:28;;;;;;;1.58;0.60;;;17.90;79.40;;;;;;4877343;27;45279;-53
2023/12/28 04:23:05;;;;;;;1.30;0.52;;;17.90;79.10;;;;;;4901213;27;45446;-52
2023/12/28 04:25:32;;;;;;;0.90;0.70;;;17.90;79.10;;;;;;4898671;27;45394;-53
2023/12/28 04:27:59;;;;;;;0.60;0.60;;;17.90;79.10;;;;;;4900329;27;45850;-53
2023/12/28 04:30:36;;;;;;;1.55;0.60;;;17.90;79.00;;;;;;4893662;27;45205;-53
2023/12/28 04:33:22;;;;;;;0.75;0.50;;;17.90;79.00;;;;;;4890921;27;45598;-53
2023/12/28 04:36:18;;;;;;;1.38;0.90;;;17.90;78.70;;;;;;4864400;27;45565;-52
2023/12/28 04:39:22;;;;;;;0.55;0.50;;;17.80;77.20;;;;;;4880332;27;45509;-52
2023/12/28 04:42:20;;;;;;;0.50;0.40;;;17.80;78.00;;;;;;4901425;27;45251;-52
2023/12/28 04:44:46;;;;;;;1.73;0.60;;;17.80;78.40;;;;;;4871833;27;45338;-53
2023/12/28 04:47:23;;;;;;;1.85;0.70;;;17.80;78.50;;;;;;4902178;27;45303;-53
2023/12/28 04:50:12;;;;;;;0.70;0.60;;;17.80;78.80;;;;;;4889556;27;47128;-52
2023/12/28 04:52:41;;;;;;;1.08;0.63;;;17.80;78.70;;;;;;4897467;27;45400;-52
2023/12/28 04:55:18;;;;;;;0.95;0.60;;;17.80;78.70;;;;;;4872675;27;45373;-53
2023/12/28 04:57:48;;;;;;;1.90;0.93;;;17.80;78.70;;;;;;4885011;27;45468;-53
2023/12/28 05:00:31;;;;;;;0.88;0.60;;;17.80;78.90;;;;;;4894955;27;46084;-53
2023/12/28 05:03:30;;;;;;;1.25;0.68;;;17.80;78.70;;;;;;4894076;27;45861;-53
2023/12/28 05:05:58;;;;;;;1.65;0.60;;;17.80;78.80;;;;;;4875117;27;45397;-53
2023/12/28 05:08:56;;;;;;;1.10;0.70;;;17.80;78.50;;;;;;4899271;27;45637;-52
2023/12/28 05:11:24;;;;;;;1.38;0.60;;;17.80;78.50;;;;;;4883068;27;46198;-53
2023/12/28 05:13:51;;;;;;;1.20;0.80;;;17.80;78.40;;;;;;4873576;27;45774;-52
2023/12/28 05:16:46;;;;;;;1.50;0.70;;;17.80;78.20;;;;;;4889103;27;45371;-52
2023/12/28 05:19:26;;;;;;;2.60;0.60;;;17.90;78.50;;;;;;4878513;27;45182;-53
2023/12/28 05:22:19;;;;;;;1.27;0.60;;;17.90;78.40;;;;;;4872868;27;45653;-52
2023/12/28 05:25:12;;;;;;;1.73;0.63;;;17.80;78.40;;;;;;4872653;27;45492;-53
2023/12/28 05:28:07;;;;;;;0.90;0.60;;;17.90;78.10;;;;;;4897003;27;45320;-52
2023/12/28 05:30:49;;;;;;;1.77;0.75;;;17.90;78.40;;;;;;4928521;27;45430;-52
2023/12/28 05:33:45;;;;;;;1.00;0.55;;;17.90;78.40;;;;;;4872859;27;45931;-53
2023/12/28 05:36:26;;;;;;;1.10;0.60;;;17.80;78.10;;;;;;4889466;27;45198;-53
2023/12/28 05:39:00;;;;;;;0.88;0.63;;;17.90;78.60;;;;;;4881708;27;45484;-53
2023/12/28 05:41:56;;;;;;;0.63;0.50;;;17.90;78.20;;;;;;4888772;27;45101;-53
2023/12/28 05:44:37;;;;;;;2.05;0.70;;;17.90;78.20;;;;;;4921346;27;45961;-53
2023/12/28 05:47:04;;;;;;;1.85;0.57;;;17.90;78.20;;;;;;4879506;27;45991;-53
2023/12/28 05:49:53;;;;;;;3.15;0.80;;;17.90;78.30;;;;;;4890905;27;45759;-52
2023/12/28 05:52:20;;;;;;;1.58;0.70;;;17.90;78.50;;;;;;4867691;27;45307;-52
2023/12/28 05:54:51;;;;;;;0.65;0.40;;;17.80;78.40;;;;;;4903171;27;45344;-53
2023/12/28 05:57:43;;;;;;;0.82;0.52;;;17.80;78.30;;;;;;4899454;27;45275;-53
2023/12/28 06:00:10;;;;;;;1.05;0.50;;;17.80;78.40;;;;;;4891345;27;45309;-53
2023/12/28 06:02:53;;;;;;;1.02;0.55;;;17.80;78.40;;;;;;4900569;27;46706;-53
2023/12/28 06:05:33;;;;;;;1.33;0.52;;;17.80;78.60;;;;;;4903030;27;45546;-53
2023/12/28 06:08:14;;;;;;;0.90;0.60;;;17.80;78.70;;;;;;4882863;27;45426;-53
2023/12/28 06:11:00;;;;;;;1.13;0.70;;;17.80;78.40;;;;;;4882607;27;45515;-53
2023/12/28 06:13:56;;;;;;;1.95;0.68;;;17.80;78.50;;;;;;4909747;27;46231;-52
2023/12/28 06:16:45;;;;;;;1.35;0.57;;;17.80;78.70;;;;;;4897785;27;45908;-53
2023/12/28 06:19:19;;;;;;;1.23;0.57;;;17.80;78.20;;;;;;4869527;27;45496;-53
2023/12/28 06:22:14;;;;;;;1.20;0.50;;;17.80;78.00;;;;;;4880985;27;45395;-53
2023/12/28 06:24:44;;;;;;;1.65;0.57;;;17.80;79.20;;;;;;4889965;27;45495;-53
2023/12/28 06:27:47;;;;;;;0.95;0.55;;;17.80;77.80;;;;;;4897738;27;46774;-53
2023/12/28 06:30:43;;;;;;;1.17;0.60;;;17.80;77.80;;;;;;4880899;27;45477;-53
2023/12/28 06:33:28;;;;;;;2.60;0.80;;;17.90;77.80;;;;;;4865806;27;45663;-53
2023/12/28 06:36:05;;;;;;;2.05;0.75;;;17.90;77.70;;;;;;4914546;27;45602;-53
2023/12/28 06:38:52;;;;;;;0.82;0.60;;;17.90;77.80;;;;;;4881736;27;46214;-53
2023/12/28 06:41:21;;;;;;;0.60;0.52;;;17.80;77.80;;;;;;4896539;27;45403;-52
2023/12/28 06:44:19;;;;;;;0.75;0.40;;;17.90;77.70;;;;;;4882482;27;45015;-52
2023/12/28 06:47:21;;;;;;;1.48;0.60;;;17.90;77.90;;;;;;4874716;27;45663;-53
2023/12/28 06:50:23;;;;;;;1.08;0.50;;;17.90;77.80;;;;;;4914347;27;46088;-53
2023/12/28 06:53:04;;;;;;;1.05;0.57;;;17.80;78.20;;;;;;4874755;27;45359;-53
2023/12/28 06:55:31;;;;;;;4.20;0.70;;;17.80;77.80;;;;;;4876974;27;45239;-53
2023/12/28 06:58:10;;;;;;;2.05;0.60;;;17.80;77.80;;;;;;4886205;27;45150;-53
2023/12/28 07:00:36;;;;;;;1.95;0.68;;;17.70;76.30;;;;;;4858992;27;47657;-53
2023/12/28 07:03:08;;;;;;;2.17;0.60;;;17.70;76.30;;;;;;4892128;27;45850;-53
2023/12/28 07:05:35;;;;;;;2.65;0.70;;;17.70;75.90;;;;;;4877246;27;45370;-53
2023/12/28 07:08:33;;;;;;;2.40;0.85;;;17.60;75.20;;;;;;4890008;27;45349;-53
2023/12/28 07:11:22;;;;;;;1.70;0.60;;;17.60;75.10;;;;;;4876781;27;46860;-53
2023/12/28 07:13:48;;;;;;;1.25;0.60;;;17.60;75.00;;;;;;4886578;27;45262;-53
2023/12/28 07:16:28;;;;;;;1.67;0.85;;;17.50;74.40;;;;;;4878457;27;45374;-52
2023/12/28 07:19:12;;;;;;;1.80;0.50;;;17.50;73.60;;;;;;4890944;27;45314;-54
2023/12/28 07:21:38;;;;;;;1.52;0.70;;;17.50;73.10;;;;;;4879357;27;46138;-53
2023/12/28 07:24:23;;;;;;;2.25;0.80;;;17.60;73.20;;;;;;4898225;27;45447;-53
2023/12/28 07:27:12;;;;;;;3.17;0.90;;;17.60;73.10;;;;;;4903750;27;45259;-53
2023/12/28 07:29:38;;;;;;;2.15;0.90;;;17.60;72.70;;;;;;4880282;27;45340;-53
2023/12/28 07:32:09;;;;;;;3.55;0.98;;;17.60;73.10;;;;;;4866979;27;46995;-53
2023/12/28 07:34:45;;;;;;;3.38;0.90;;;17.60;73.40;;;;;;4881656;27;45618;-53
2023/12/28 07:37:46;;;;;;;1.45;0.80;;;17.60;74.50;;;;;;4877425;27;45504;-53
2023/12/28 07:40:26;;;;;;;1.73;0.95;;;17.70;76.10;;;;;;4882457;27;45478;-52
2023/12/28 07:43:05;;;;;;;2.33;0.82;;;17.70;76.30;;;;;;4887414;27;46277;-52
2023/12/28 07:45:31;;;;;;;1.38;0.63;;;17.70;75.60;;;;;;4886971;27;45410;-53
2023/12/28 07:48:08;;;;;;;3.25;1.00;;;17.70;75.20;;;;;;4899681;27;45813;-53
2023/12/28 07:50:52;;;;;;;2.40;0.98;;;17.60;74.50;;;;;;4868137;27;45490;-53
2023/12/28 07:53:41;;;;;;;1.52;0.85;;;17.70;75.70;;;;;;4894174;27;46239;-53
2023/12/28 07:56:08;;;;;;;2.70;1.00;;;17.70;76.30;;;;;;4882743;27;45379;-52
2023/12/28 07:58:47;;;;;;;1.42;0.73;;;17.70;76.30;;;;;;4901051;27;45462;-53
2023/12/28 08:01:25;;;;;;;1.60;0.70;;;17.70;76.30;;;;;;4890629;27;45209;-53
2023/12/28 08:04:15;;;;;;;4.00;0.90;;;17.70;76.30;;;;;;4880866;27;46316;-52
2023/12/28 08:07:01;;;;;;;0.90;0.45;;;17.70;76.30;;;;;;4893336;27;45581;-53
2023/12/28 08:09:58;;;;;;;2.30;0.70;;;17.70;76.30;;;;;;4887121;27;45510;-53
2023/12/28 08:12:27;;;;;;;1.73;0.70;;;17.70;76.30;;;;;;4894020;27;45176;-53
2023/12/28 08:15:09;;;;;;;1.17;0.70;;;17.70;76.30;;;;;;4898857;27;46915;-53
2023/12/28 08:17:36;;;;;;;2.53;0.90;;;17.70;77.30;;;;;;4862664;27;45439;-53
2023/12/28 08:20:26;;;;;;;2.25;0.98;;;17.70;76.30;;;;;;4890424;27;45555;-53
2023/12/28 08:23:04;;;;;;;1.88;0.90;;;17.70;76.30;;;;;;4908450;27;46477;-53
2023/12/28 08:25:40;;;;;;;3.17;0.90;;;17.70;76.30;;;;;;4872677;27;47234;-52
2023/12/28 08:28:19;;;;;;;2.45;0.90;;;17.70;76.30;;;;;;4875090;27;45456;-53
2023/12/28 08:31:12;;;;;;;2.13;0.95;;;17.70;76.30;;;;;;4894436;27;45483;-53
2023/12/28 08:33:41;;;;;;;2.08;0.50;;;17.70;76.30;;;;;;4890593;27;45581;-53
2023/12/28 08:36:34;;;;;;;2.50;0.77;;;17.70;76.30;;;;;;4901685;27;45536;-53
2023/12/28 08:39:03;;;;;;;2.38;0.90;;;17.70;76.30;;;;;;4868172;27;45359;-53
2023/12/28 08:41:57;;;;;;;3.13;1.10;;;17.70;76.30;;;;;;4924467;27;45271;-53
2023/12/28 08:44:36;;;;;;;2.15;0.80;;;17.80;76.30;;;;;;4870290;27;45373;-52
2023/12/28 08:47:03;;;;;;;1.98;0.75;;;17.70;76.30;;;;;;4878343;27;46298;-53
2023/12/28 08:49:33;;;;;;;4.53;0.93;;;17.80;76.30;;;;;;4865822;27;45528;-53
2023/12/28 08:52:22;;;;;;;1.52;0.73;;;17.80;76.30;;;;;;4892323;27;45335;-53
2023/12/28 08:54:52;;;;;;;2.15;0.98;;;17.80;76.30;;;;;;4893086;27;45551;-53
2023/12/28 08:57:19;;;;;;;5.30;1.10;;;17.80;76.40;;;;;;4901355;27;46271;-53
2023/12/28 09:00:05;;;;;;;2.50;0.80;;;17.80;76.30;;;;;;4863262;27;45308;-53
2023/12/28 09:02:35;;;;;;;1.92;0.85;;;17.80;76.30;;;;;;4875563;27;45126;-53
2023/12/28 09:05:11;;;;;;;2.80;0.68;;;17.80;76.30;;;;;;4883704;27;45199;-53
2023/12/28 09:07:50;;;;;;;2.35;0.80;;;17.80;76.40;;;;;;4895153;27;45311;-53
2023/12/28 09:10:54;;;;;;;1.77;0.70;;;17.80;76.30;;;;;;4893155;27;45458;-53
2023/12/28 09:13:34;;;;;;;2.38;0.85;;;17.80;76.40;;;;;;4884794;27;45229;-53
2023/12/28 09:16:01;;;;;;;2.78;0.80;;;17.70;76.30;;;;;;4902214;27;45444;-53
2023/12/28 09:18:28;;;;;;;2.03;0.90;;;17.80;76.30;;;;;;4895186;27;46354;-53
2023/12/28 09:20:55;;;;;;;1.70;0.88;;;17.80;76.30;;;;;;4885632;27;45248;-53
2023/12/28 09:23:41;;;;;;;2.65;0.88;;;17.80;76.40;;;;;;4890229;27;45668;-53
2023/12/28 09:26:28;;;;;;;2.25;0.77;;;17.80;76.60;;;;;;4882592;27;45391;-53
2023/12/28 09:28:58;;;;;;;3.60;0.80;;;17.80;76.60;;;;;;4891711;27;47147;-53
2023/12/28 09:31:51;;;;;;;3.45;0.90;;;17.80;76.60;;;;;;4879769;27;45533;-53
2023/12/28 09:34:18;;;;;;;2.03;0.90;;;17.80;76.80;;;;;;4867657;27;45488;-53
2023/12/28 09:39:59;;;;;;;1.75;0.70;;;17.80;76.40;;;;;;4892553;27;45402;-53
2023/12/28 09:43:04;;;;;;;1.65;0.65;;;17.80;76.60;;;;;;4915272;27;45350;-53
2023/12/28 09:45:31;;;;;;;1.75;0.60;;;17.80;76.90;;;;;;4881555;27;45522;-53
2023/12/28 09:47:58;;;;;;;2.10;0.90;;;17.80;76.50;;;;;;4879144;27;45656;-53
2023/12/28 09:50:57;;;;;;;2.00;0.73;;;17.80;76.40;;;;;;4912405;27;45320;-53
2023/12/28 09:53:29;;;;;;;2.42;0.70;;;17.90;76.50;;;;;;4890901;27;46082;-53
2023/12/28 09:56:27;;;;;;;1.55;0.50;;;17.80;76.30;;;;;;4886853;27;45364;-53
2023/12/28 09:59:01;;;;;;;1.85;0.60;;;17.80;76.50;;;;;;4885564;27;45395;-53
2023/12/28 10:01:50;;;;;;;1.60;0.75;;;17.80;76.30;;;;;;4896233;27;46041;-53
2023/12/28 10:04:43;;;;;;;2.30;0.73;;;17.80;76.30;;;;;;4889810;27;45685;-53
2023/12/28 10:07:10;;;;;;;2.17;0.82;;;17.80;76.30;;;;;;4887895;27;45409;-53
2023/12/28 10:09:56;;;;;;;3.17;0.93;;;17.80;76.30;;;;;;4911340;27;45185;-53
2023/12/28 10:12:23;;;;;;;1.50;0.80;;;17.80;76.30;;;;;;4882776;27;46227;-53
2023/12/28 10:15:04;;;;;;;2.13;0.93;;;17.80;76.30;;;;;;4881630;27;45223;-53
2023/12/28 10:17:33;;;;;;;2.88;0.77;;;17.70;77.00;;;;;;4899152;27;45303;-53
2023/12/28 10:20:15;;;;;;;1.85;0.73;;;17.70;76.70;;;;;;4897018;27;45240;-53
2023/12/28 10:22:42;;;;;;;2.25;0.82;;;17.80;76.60;;;;;;4905067;27;45957;-53
2023/12/28 10:25:36;;;;;;;2.13;0.60;;;17.80;76.70;;;;;;4923208;27;45508;-52
2023/12/28 10:28:25;;;;;;;2.78;0.80;;;17.80;76.50;;;;;;4907846;27;45410;-52
2023/12/28 10:34:28;;;;;;;5.13;1.10;;;18.00;76.70;;;;;;4896173;27;45567;-53
2023/12/28 10:37:28;;;;;;;7.95;1.35;;;18.00;76.50;;;;;;4927662;27;45969;-52
2023/12/28 10:40:01;;;;;;;4.78;1.10;;;17.90;76.50;;;;;;4883568;27;45427;-53
2023/12/28 10:43:12;;;;;;;2.83;0.85;;;17.90;76.10;;;;;;4898486;27;45347;-53
2023/12/28 10:45:59;;;;;;;3.72;1.13;;;17.90;75.60;;;;;;4873365;27;46038;-53
2023/12/28 10:49:05;;;;;;;3.65;1.00;;;17.90;75.30;;;;;;4868145;27;45286;-53
2023/12/28 10:52:37;;;;;;;1.38;0.60;;;17.90;76.00;;;;;;4886939;27;46132;-52
2023/12/28 10:55:35;;;;;;;2.35;0.80;;;17.90;75.50;;;;;;4890513;27;45122;-53
2023/12/28 10:58:33;;;;;;;2.88;0.80;;;17.90;75.70;;;;;;4858206;27;45936;-53
2023/12/28 11:01:13;;;;;;;3.83;0.90;;;17.90;75.40;;;;;;4884336;27;45302;-53
2023/12/28 11:04:52;;;;;;;1.67;0.75;;;17.90;75.70;;;;;;4886415;27;45529;-53
2023/12/28 11:07:45;;;;;;;3.80;0.90;;;17.90;74.90;;;;;;4934144;27;45547;-53
2023/12/28 11:10:23;;;;;;;3.15;0.93;;;17.90;75.40;;;;;;4863369;27;46107;-53
2023/12/28 11:13:03;;;;;;;1.58;0.50;;;17.90;75.20;;;;;;4889538;27;45453;-53
2023/12/28 11:15:44;;;;;;;1.95;0.70;;;17.90;74.90;;;;;;4873002;27;45434;-53
2023/12/28 11:18:20;;;;;;;1.65;0.75;;;17.90;74.90;;;;;;4874119;27;45232;-53
2023/12/28 11:21:09;;;;;;;4.15;1.00;;;17.90;75.20;;;;;;4878149;27;45453;-52
2023/12/28 11:23:49;;;;;;;7.65;1.00;;;17.90;74.90;;;;;;4889845;27;45366;-53
2023/12/28 11:26:20;;;;;;;3.75;0.85;;;17.90;74.70;;;;;;4880485;27;45587;-53
2023/12/28 11:29:08;;;;;;;3.00;0.75;;;17.80;74.50;;;;;;4900489;27;45469;-53
2023/12/28 11:31:35;;;;;;;1.05;0.60;;;17.80;75.10;;;;;;4899754;27;47600;-53
2023/12/28 11:34:20;;;;;;;2.60;0.93;;;17.80;75.50;;;;;;4860082;27;45363;-53
2023/12/28 11:40:19;;;;;;;2.20;0.68;;;17.80;76.00;;;;;;4879577;27;45232;-53
2023/12/28 11:43:03;;;;;;;2.63;0.88;;;17.80;75.70;;;;;;4914899;27;45262;-52
2023/12/28 11:45:58;;;;;;;1.92;0.75;;;17.80;75.70;;;;;;4893007;27;45393;-53
2023/12/28 11:51:11;;;;;;;2.58;0.70;;;17.80;76.00;;;;;;4875441;27;46200;-53
2023/12/28 11:53:42;;;;;;;3.38;0.80;;;17.80;76.20;;;;;;4887617;27;46624;-53
2023/12/28 11:56:36;;;;;;;2.20;0.70;;;17.80;76.30;;;;;;4885774;27;45483;-53
2023/12/28 11:59:14;;;;;;;2.25;0.70;;;17.80;76.30;;;;;;4910575;27;45434;-53
2023/12/28 12:02:36;;;;;;;1.45;0.60;;;17.80;76.30;;;;;;4914990;27;45534;-53
2023/12/28 12:05:34;;;;;;;3.90;0.82;;;17.80;76.30;;;;;;4869154;27;47069;-53
2023/12/28 12:08:04;;;;;;;2.90;0.98;;;17.80;76.10;;;;;;4889176;27;45275;-53
2023/12/28 12:10:36;;;;;;;2.03;0.63;;;17.80;74.90;;;;;;4870134;27;45879;-53
2023/12/28 12:13:18;;;;;;;1.88;0.60;;;17.80;74.00;;;;;;4888595;27;45279;-53
2023/12/28 12:16:05;;;;;;;1.83;0.80;;;17.80;75.80;;;;;;4895276;27;46181;-53
2023/12/28 12:19:10;;;;;;;1.45;0.55;;;17.80;76.40;;;;;;4905148;27;45181;-53
2023/12/28 12:22:12;;;;;;;2.25;0.70;;;17.80;76.30;;;;;;4895031;27;45265;-53
2023/12/28 12:24:41;;;;;;;2.00;0.80;;;17.80;76.30;;;;;;4897231;27;45514;-53
2023/12/28 12:27:56;;;;;;;3.33;0.73;;;17.80;76.30;;;;;;4882496;27;46266;-53
2023/12/28 12:31:05;;;;;;;2.75;0.70;;;17.80;76.40;;;;;;4907558;27;46160;-53
2023/12/28 12:33:33;;;;;;;2.22;0.80;;;17.80;76.30;;;;;;4895964;27;45267;-53
2023/12/28 12:35:59;;;;;;;3.33;0.93;;;17.80;76.30;;;;;;4878990;27;45507;-53
2023/12/28 12:38:40;;;;;;;3.33;0.90;;;17.70;76.30;;;;;;4900120;27;46746;-52
2023/12/28 12:41:30;;;;;;;2.60;0.90;;;17.80;76.40;;;;;;4883596;27;46024;-53
2023/12/28 12:44:01;;;;;;;2.95;0.70;;;17.70;76.30;;;;;;4878970;27;45324;-53
2023/12/28 12:46:29;;;;;;;2.38;0.77;;;17.70;76.30;;;;;;4898471;27;45235;-53
2023/12/28 12:49:26;;;;;;;2.38;0.88;;;17.80;76.30;;;;;;4883502;27;46264;-53
2023/12/28 12:52:04;;;;;;;2.72;0.88;;;17.80;76.30;;;;;;4867864;27;45703;-53
2023/12/28 12:54:54;;;;;;;1.55;0.68;;;17.80;76.30;;;;;;4885499;27;45343;-52
2023/12/28 12:57:38;;;;;;;1.45;0.70;;;17.80;76.30;;;;;;4897863;27;45326;-53
2023/12/28 13:00:22;;;;;;;1.17;0.50;;;17.80;76.30;;;;;;4911616;27;45941;-52
2023/12/28 13:03:11;;;;;;;2.15;0.60;;;17.80;76.40;;;;;;4882840;27;45597;-53
2023/12/28 13:05:58;;;;;;;3.40;0.75;;;17.80;76.40;;;;;;4897678;27;45354;-53
2023/12/28 13:08:25;;;;;;;2.60;0.90;;;17.80;76.40;;;;;;4860333;27;45380;-53
2023/12/28 13:11:14;;;;;;;4.38;0.98;;;17.80;76.30;;;;;;4893822;27;47006;-53
2023/12/28 13:13:53;;;;;;;2.28;0.90;;;17.80;76.30;;;;;;4866739;27;45307;-52
2023/12/28 13:16:24;;;;;;;1.42;0.60;;;17.80;76.30;;;;;;4883915;27;45409;-53
2023/12/28 13:19:20;;;;;;;3.10;0.80;;;17.80;76.30;;;;;;4894428;27;45548;-53
2023/12/28 13:22:09;;;;;;;2.40;0.65;;;17.80;76.30;;;;;;4880464;27;46134;-52
2023/12/28 13:25:10;;;;;;;0.93;0.50;;;17.80;76.30;;;;;;4890000;27;45461;-52
2023/12/28 13:28:01;;;;;;;2.05;0.80;;;17.80;76.30;;;;;;4918953;27;45510;-52
2023/12/28 13:31:01;;;;;;;2.05;0.57;;;17.80;76.30;;;;;;4871496;27;45582;-52
2023/12/28 13:33:43;;;;;;;3.47;1.05;;;17.80;76.30;;;;;;4882188;27;46200;-53
2023/12/28 13:36:12;;;;;;;1.88;0.60;;;17.70;75.80;;;;;;4888777;27;45264;-52
2023/12/28 13:38:49;;;;;;;2.15;0.95;;;17.80;75.70;;;;;;4871694;27;45247;-53
2023/12/28 13:41:38;;;;;;;1.50;0.55;;;17.80;75.50;;;;;;4886502;27;45210;-53
2023/12/28 13:44:31;;;;;;;2.50;0.70;;;17.80;75.00;;;;;;4933633;27;47843;-53
2023/12/28 13:46:57;;;;;;;3.53;0.70;;;17.80;74.80;;;;;;4876411;27;45376;-53
2023/12/28 13:49:40;;;;;;;3.13;0.65;;;17.80;75.00;;;;;;4895254;27;44908;-53
2023/12/28 13:52:08;;;;;;;1.83;0.60;;;17.80;75.00;;;;;;4915421;27;45686;-53
2023/12/28 13:54:38;;;;;;;1.42;0.65;;;17.80;75.00;;;;;;4883671;27;45394;-53
2023/12/28 13:57:09;;;;;;;3.08;0.82;;;17.80;75.40;;;;;;4862142;27;45515;-53
2023/12/28 13:59:50;;;;;;;2.03;0.60;;;17.80;75.60;;;;;;4876331;27;45444;-53
2023/12/28 14:02:18;;;;;;;2.78;0.85;;;17.80;75.70;;;;;;4888857;27;45256;-53
2023/12/28 14:04:46;;;;;;;1.55;0.68;;;17.80;75.40;;;;;;4896815;27;45592;-53
2023/12/28 14:07:34;;;;;;;0.90;0.43;;;17.80;75.40;;;;;;4897327;27;45274;-53
2023/12/28 14:10:12;;;;;;;2.00;0.68;;;17.80;75.60;;;;;;4873338;27;45335;-53